Terminal Aerodrome Forecast
Issued by NWS Portland, ME

Home | Current Version | Previous Version | Text Only | Print | Product List | Glossary On
Versions: 1 2 3 4 5 6 7 8 9 10 11 12 13 14 15 16 17
678
FTUS41 KGYX 241311 AAA
TAFCON
TAF AMD
KCON 241311Z 2413/2512 17006KT P6SM SCT030 BKN060 OVC090
      TEMPO 2413/2417 1 1/2SM -SHSN BKN025 OVC050
     FM241700 19008KT 2SM -SN BKN015 OVC030
      TEMPO 2418/2421 6SM -RASN BKN015 OVC025
     FM242100 22008KT P6SM -SHRA BKN015 OVC025
     FM250000 VRB04KT P6SM BKN025 OVC050=

USA.gov is the U.S. government's official web portal to all federal, state and local government web resources and services.